createdAt,value
2016-12-15T00:00:08.689Z,18.94
2016-12-15T00:00:36.992Z,18.94
2016-12-15T00:01:04.995Z,18.94
2016-12-15T00:01:33.101Z,18.97
2016-12-15T00:02:01.440Z,18.93
2016-12-15T00:02:29.614Z,18.88
2016-12-15T00:02:57.921Z,19
2016-12-15T00:03:26.183Z,19
2016-12-15T00:04:37.513Z,19.01
2016-12-15T00:05:05.628Z,19.13
2016-12-15T00:05:33.796Z,19.13
2016-12-15T00:06:02.256Z,19.08
2016-12-15T00:06:30.379Z,19.13
2016-12-15T00:06:58.570Z,19.08
2016-12-15T00:07:26.774Z,19.05
2016-12-15T00:07:55.025Z,19.08
2016-12-15T00:08:23.374Z,19.05
2016-12-15T00:08:51.496Z,19.04
2016-12-15T00:09:19.572Z,19.16
2016-12-15T00:10:30.913Z,19.2
2016-12-15T00:10:59.119Z,19.19
2016-12-15T00:11:27.384Z,19.2
2016-12-15T00:11:55.733Z,19.19
2016-12-15T00:12:23.951Z,19.2
2016-12-15T00:12:52.235Z,19.23
2016-12-15T00:13:20.247Z,19.15
2016-12-15T00:13:48.590Z,19.13
2016-12-15T00:14:16.868Z,19.16
2016-12-15T00:14:45.094Z,19.16
2016-12-15T00:15:13.459Z,19.22
2016-12-15T00:16:24.711Z,19.2
2016-12-15T00:16:53.015Z,19.2
2016-12-15T00:17:21.274Z,19.23
2016-12-15T00:17:49.629Z,19.22
2016-12-15T00:18:17.751Z,19.24
2016-12-15T00:18:46.034Z,19.19
2016-12-15T00:19:14.332Z,19.31
2016-12-15T00:19:42.490Z,19.35
2016-12-15T00:20:10.754Z,19.23
2016-12-15T00:20:38.975Z,19.2
2016-12-15T00:21:07.233Z,19.26
2016-12-15T00:22:18.487Z,19.19
2016-12-15T00:22:46.696Z,19.19
2016-12-15T00:23:14.956Z,19.23
2016-12-15T00:23:43.304Z,19.19
2016-12-15T00:24:11.423Z,19.26
2016-12-15T00:24:39.710Z,19.22
2016-12-15T00:25:07.813Z,19.23
2016-12-15T00:25:36.063Z,19.2
2016-12-15T00:26:04.325Z,19.19
2016-12-15T00:26:32.542Z,19.2
2016-12-15T00:27:00.807Z,19.08
2016-12-15T00:28:11.892Z,19.09
2016-12-15T00:28:40.017Z,19.09
2016-12-15T00:29:08.279Z,19.08
2016-12-15T00:29:36.630Z,19.07
2016-12-15T00:30:04.855Z,19.07
2016-12-15T00:30:32.951Z,19.08
2016-12-15T00:31:01.501Z,19.01
2016-12-15T00:31:29.755Z,18.98
2016-12-15T00:31:57.927Z,18.98
2016-12-15T00:32:26.135Z,19.04
2016-12-15T00:32:54.392Z,19
2016-12-15T00:34:05.723Z,18.98
2016-12-15T00:34:34.022Z,18.91
2016-12-15T00:35:02.187Z,18.89
2016-12-15T00:35:30.266Z,18.78
2016-12-15T00:35:58.570Z,18.76
2016-12-15T00:36:26.760Z,18.67
2016-12-15T00:36:54.867Z,18.63
2016-12-15T00:37:23.213Z,18.63
2016-12-15T00:37:51.388Z,18.64
2016-12-15T00:38:19.602Z,18.66
2016-12-15T00:38:47.862Z,18.64
2016-12-15T00:39:59.101Z,18.6
2016-12-15T00:40:27.307Z,18.56
2016-12-15T00:40:55.563Z,18.56
2016-12-15T00:41:23.819Z,18.56
2016-12-15T00:41:52.125Z,18.54
2016-12-15T00:42:20.127Z,18.58
2016-12-15T00:42:48.314Z,18.56
2016-12-15T00:43:16.567Z,18.6
2016-12-15T00:43:44.824Z,18.64
2016-12-15T00:44:12.755Z,18.63
2016-12-15T00:44:40.918Z,18.56
2016-12-15T00:45:52.246Z,18.6
2016-12-15T00:46:20.361Z,18.51
2016-12-15T00:46:48.436Z,18.51
2016-12-15T00:47:16.696Z,18.57
2016-12-15T00:47:45.003Z,18.52
2016-12-15T00:48:13.105Z,18.42
2016-12-15T00:48:41.201Z,18.42
2016-12-15T00:49:09.358Z,18.42
2016-12-15T00:49:37.621Z,18.52
2016-12-15T00:50:05.925Z,18.43
2016-12-15T00:50:34.179Z,18.42
2016-12-15T00:51:45.416Z,18.45
2016-12-15T00:52:13.625Z,18.46
2016-12-15T00:52:41.975Z,18.52
2016-12-15T00:53:10.044Z,18.45
2016-12-15T00:53:38.257Z,18.45
2016-12-15T00:54:06.264Z,18.46
2016-12-15T00:54:34.550Z,18.41
2016-12-15T00:55:02.799Z,18.42
2016-12-15T00:55:31.146Z,18.43
2016-12-15T00:55:59.359Z,18.45
2016-12-15T00:56:27.618Z,18.46
2016-12-15T00:57:38.769Z,18.51
2016-12-15T00:58:06.885Z,18.49
2016-12-15T00:58:35.144Z,18.52
2016-12-15T00:59:03.400Z,18.56
2016-12-15T00:59:31.519Z,18.49
2016-12-15T00:59:59.614Z,18.56
2016-12-15T01:00:27.799Z,18.56
2016-12-15T01:00:55.956Z,18.45
2016-12-15T01:01:24.306Z,18.54
2016-12-15T01:01:52.610Z,18.49
2016-12-15T01:02:20.958Z,18.51
2016-12-15T01:03:32.195Z,18.51
2016-12-15T01:04:00.401Z,18.54
2016-12-15T01:04:28.660Z,18.57
2016-12-15T01:04:56.827Z,18.57
2016-12-15T01:05:24.751Z,18.52
2016-12-15T01:05:52.844Z,18.52
2016-12-15T01:06:20.947Z,18.52
2016-12-15T01:06:49.292Z,18.43
2016-12-15T01:07:17.552Z,18.49
2016-12-15T01:07:45.861Z,18.41
2016-12-15T01:08:14.110Z,18.45
2016-12-15T01:09:25.349Z,18.52
2016-12-15T01:09:53.463Z,18.43
2016-12-15T01:10:21.633Z,18.52
2016-12-15T01:10:49.977Z,18.54
2016-12-15T01:11:18.123Z,18.48
2016-12-15T01:11:46.219Z,18.57
2016-12-15T01:12:14.406Z,18.56
2016-12-15T01:12:42.563Z,18.54
2016-12-15T01:13:10.913Z,18.46
2016-12-15T01:13:39.219Z,18.57
2016-12-15T01:14:07.467Z,18.57
2016-12-15T01:15:18.797Z,18.6
2016-12-15T01:15:47.002Z,18.56
2016-12-15T01:16:15.263Z,18.57
2016-12-15T01:16:43.427Z,18.6
2016-12-15T01:17:11.550Z,18.54
2016-12-15T01:17:39.550Z,18.57
2016-12-15T01:18:07.751Z,18.61
2016-12-15T01:18:36.098Z,18.64
2016-12-15T01:19:04.984Z,18.64
2016-12-15T01:19:33.194Z,18.67
2016-12-15T01:20:01.460Z,18.64
2016-12-15T01:21:12.695Z,18.63
2016-12-15T01:21:40.814Z,18.64
2016-12-15T01:22:09.080Z,18.63
2016-12-15T01:22:37.244Z,18.67
2016-12-15T01:23:05.459Z,18.76
2016-12-15T01:23:33.653Z,18.67
2016-12-15T01:24:01.941Z,18.71
2016-12-15T01:24:30.098Z,18.66
2016-12-15T01:24:58.267Z,18.61
2016-12-15T01:25:26.571Z,18.79
2016-12-15T01:25:54.727Z,18.61
2016-12-15T01:27:05.964Z,18.74
2016-12-15T01:27:34.260Z,18.66
2016-12-15T01:28:02.618Z,18.75
2016-12-15T01:28:30.872Z,18.64
2016-12-15T01:28:59.085Z,18.64
2016-12-15T01:29:27.366Z,18.66
2016-12-15T01:29:55.370Z,18.75
2016-12-15T01:30:23.715Z,18.68
2016-12-15T01:30:52.064Z,18.68
2016-12-15T01:31:20.364Z,18.67
2016-12-15T01:31:48.620Z,18.78
2016-12-15T01:32:59.861Z,18.82
2016-12-15T01:33:28.064Z,18.71
2016-12-15T01:33:56.325Z,18.75
2016-12-15T01:34:24.670Z,18.75
2016-12-15T01:34:52.782Z,18.74
2016-12-15T01:35:21.060Z,18.75
2016-12-15T01:35:49.348Z,18.76
2016-12-15T01:36:17.601Z,18.76
2016-12-15T01:36:45.953Z,18.74
2016-12-15T01:37:14.159Z,18.78
2016-12-15T01:37:42.411Z,18.74
2016-12-15T01:38:53.554Z,18.71
2016-12-15T01:39:21.759Z,18.67
2016-12-15T01:39:49.928Z,18.7
2016-12-15T01:40:18.095Z,18.74
2016-12-15T01:40:46.396Z,18.67
2016-12-15T01:41:14.494Z,18.74
2016-12-15T01:41:42.599Z,18.7
2016-12-15T01:42:10.747Z,18.75
2016-12-15T01:42:39.007Z,18.68
2016-12-15T01:43:07.218Z,18.68
2016-12-15T01:43:35.374Z,18.79
2016-12-15T01:44:46.517Z,18.82
2016-12-15T01:45:14.817Z,18.7
2016-12-15T01:45:43.076Z,18.68
2016-12-15T01:46:11.359Z,18.63
2016-12-15T01:46:39.660Z,18.66
2016-12-15T01:47:07.945Z,18.64
2016-12-15T01:47:36.046Z,18.56
2016-12-15T01:48:04.295Z,18.45
2016-12-15T01:48:32.559Z,18.52
2016-12-15T01:49:00.861Z,18.52
2016-12-15T01:49:29.111Z,18.51
2016-12-15T01:50:40.446Z,18.48
2016-12-15T01:51:08.468Z,18.39
2016-12-15T01:51:36.727Z,18.38
2016-12-15T01:52:04.987Z,18.3
2016-12-15T01:52:33.290Z,18.28
2016-12-15T01:53:01.571Z,18.38
2016-12-15T01:53:29.671Z,18.23
2016-12-15T01:53:57.825Z,18.23
2016-12-15T01:54:26.081Z,18.28
2016-12-15T01:54:54.293Z,18.33
2016-12-15T01:55:22.577Z,18.15
2016-12-15T01:56:33.903Z,18.11
2016-12-15T01:57:02.019Z,18.26
2016-12-15T01:57:30.376Z,18.23
2016-12-15T01:57:58.631Z,18.09
2016-12-15T01:58:26.937Z,18.15
2016-12-15T01:58:55.122Z,18.13
2016-12-15T01:59:23.314Z,18.21
2016-12-15T01:59:51.560Z,18.12
2016-12-15T02:00:19.724Z,18.11
2016-12-15T02:00:47.748Z,18.11
2016-12-15T02:01:16.095Z,18.17
2016-12-15T02:02:27.328Z,18.13
2016-12-15T02:02:55.439Z,18.11
2016-12-15T02:03:23.704Z,17.99
2016-12-15T02:03:51.958Z,18.05
2016-12-15T02:04:20.170Z,18.11
2016-12-15T02:04:48.355Z,18.11
2016-12-15T02:05:16.357Z,18.11
2016-12-15T02:05:44.516Z,18.03
2016-12-15T02:06:12.781Z,18.02
2016-12-15T02:06:40.985Z,18.08
2016-12-15T02:07:09.232Z,18.01
2016-12-15T02:08:20.560Z,18.06
2016-12-15T02:08:48.766Z,18.02
2016-12-15T02:09:17.024Z,18.02
2016-12-15T02:09:45.282Z,18.03
2016-12-15T02:10:13.492Z,18.18
2016-12-15T02:10:41.686Z,18.03
2016-12-15T02:11:09.972Z,18.03
2016-12-15T02:11:38.131Z,18.03
2016-12-15T02:12:06.485Z,18.01
2016-12-15T02:12:34.602Z,18.13
2016-12-15T02:13:02.947Z,18.02
2016-12-15T02:14:14.182Z,18.05
2016-12-15T02:14:42.382Z,18.05
2016-12-15T02:15:10.732Z,18.13
2016-12-15T02:15:38.981Z,18.09
2016-12-15T02:16:07.280Z,17.99
2016-12-15T02:16:35.469Z,18.03
2016-12-15T02:17:03.756Z,18.01
2016-12-15T02:17:32.004Z,18.01
2016-12-15T02:18:00.357Z,18.06
2016-12-15T02:18:28.566Z,18.06
2016-12-15T02:18:56.820Z,18.06
2016-12-15T02:20:07.865Z,18.03
2016-12-15T02:20:36.165Z,18.03
2016-12-15T02:21:04.424Z,18.06
2016-12-15T02:21:32.685Z,18.02
2016-12-15T02:22:00.991Z,18.03
2016-12-15T02:22:29.180Z,18.09
2016-12-15T02:22:57.277Z,18.13
2016-12-15T02:23:25.527Z,18.06
2016-12-15T02:23:53.878Z,18.03
2016-12-15T02:24:22.192Z,18.03
2016-12-15T02:24:50.539Z,17.97
2016-12-15T02:26:01.771Z,18.02
2016-12-15T02:26:29.977Z,18.01
2016-12-15T02:26:58.235Z,18.08
2016-12-15T02:27:26.575Z,18.06
2016-12-15T02:27:54.785Z,18.08
2016-12-15T02:28:22.978Z,18.06
2016-12-15T02:28:51.183Z,18.02
2016-12-15T02:29:19.342Z,18.08
2016-12-15T02:29:47.696Z,17.97
2016-12-15T02:30:15.907Z,18.08
2016-12-15T02:30:44.160Z,18.06
2016-12-15T02:31:55.395Z,18.02
2016-12-15T02:32:23.417Z,18.06
2016-12-15T02:32:51.680Z,18.06
2016-12-15T02:33:19.751Z,18.09
2016-12-15T02:33:48.052Z,18.05
2016-12-15T02:34:16.333Z,18.05
2016-12-15T02:34:44.619Z,18.09
2016-12-15T02:35:12.871Z,18.05
2016-12-15T02:35:41.127Z,17.99
2016-12-15T02:36:09.427Z,18.02
2016-12-15T02:36:37.772Z,18.05
2016-12-15T02:37:48.721Z,18.02
2016-12-15T02:38:16.832Z,17.99
2016-12-15T02:38:45.185Z,18.03
2016-12-15T02:39:13.534Z,18.13
2016-12-15T02:39:41.742Z,18.09
2016-12-15T02:40:09.931Z,18.08
2016-12-15T02:40:38.215Z,18.02
2016-12-15T02:41:06.463Z,18.05
2016-12-15T02:41:34.819Z,18.02
2016-12-15T02:42:03.121Z,18.01
2016-12-15T02:42:31.286Z,18.03
2016-12-15T02:43:42.521Z,18.08
2016-12-15T02:44:10.760Z,18.05
2016-12-15T02:44:39.014Z,17.93
2016-12-15T02:45:07.363Z,18.02
2016-12-15T02:45:35.573Z,18.01
2016-12-15T02:46:03.575Z,18.11
2016-12-15T02:46:31.857Z,18.02
2016-12-15T02:47:00.013Z,18.05
2016-12-15T02:47:28.365Z,18.05
2016-12-15T02:47:56.578Z,18.06
2016-12-15T02:48:24.734Z,18.02
2016-12-15T02:49:35.968Z,18.08
2016-12-15T02:50:04.180Z,18.03
2016-12-15T02:50:32.347Z,18.03
2016-12-15T02:51:00.514Z,18.06
2016-12-15T02:51:28.817Z,18.06
2016-12-15T02:51:56.924Z,18.02
2016-12-15T02:52:25.210Z,18.06
2016-12-15T02:52:53.458Z,18.01
2016-12-15T02:53:21.808Z,18.05
2016-12-15T02:53:50.123Z,18.03
2016-12-15T02:54:18.270Z,18.03
2016-12-15T02:55:29.503Z,18.09
2016-12-15T02:55:57.707Z,18.05
2016-12-15T02:56:25.965Z,18.06
2016-12-15T02:56:54.219Z,17.99
2016-12-15T02:57:22.429Z,18.05
2016-12-15T02:57:50.620Z,18.01
2016-12-15T02:58:18.813Z,18.05
2016-12-15T02:58:46.876Z,18.01
2016-12-15T02:59:15.134Z,18.02
2016-12-15T02:59:43.347Z,17.97
2016-12-15T03:00:11.690Z,18.05
2016-12-15T03:01:22.833Z,18.02
2016-12-15T03:01:51.134Z,18.02
2016-12-15T03:02:19.392Z,18.06
2016-12-15T03:02:47.739Z,18.01
2016-12-15T03:03:15.952Z,18.05
2016-12-15T03:03:44.139Z,18.11
2016-12-15T03:04:12.331Z,17.97
2016-12-15T03:04:40.673Z,18.12
2016-12-15T03:05:08.844Z,18.03
2016-12-15T03:05:37.050Z,18.03
2016-12-15T03:06:05.298Z,18.08
2016-12-15T03:07:16.441Z,18.03
2016-12-15T03:07:44.738Z,18.02
2016-12-15T03:08:12.998Z,18.02
2016-12-15T03:08:41.249Z,18.08
2016-12-15T03:09:09.554Z,17.99
2016-12-15T03:09:37.742Z,18.11
2016-12-15T03:10:05.839Z,17.94
2016-12-15T03:10:34.181Z,18.05
2016-12-15T03:11:02.442Z,17.97
2016-12-15T03:11:30.555Z,18.01
2016-12-15T03:11:58.715Z,17.99
2016-12-15T03:13:09.949Z,18.12
2016-12-15T03:13:38.065Z,17.99
2016-12-15T03:14:06.415Z,18.02
2016-12-15T03:14:34.763Z,18.01
2016-12-15T03:15:03.069Z,18.03
2016-12-15T03:15:31.348Z,18.02
2016-12-15T03:15:59.539Z,18.03
2016-12-15T03:16:27.785Z,18.03
2016-12-15T03:16:56.042Z,18.09
2016-12-15T03:17:24.255Z,18.03
2016-12-15T03:17:52.421Z,18.01
2016-12-15T03:19:03.664Z,18.06
2016-12-15T03:19:31.771Z,18.05
2016-12-15T03:19:59.941Z,18.06
2016-12-15T03:20:28.113Z,17.97
2016-12-15T03:20:56.327Z,18.05
2016-12-15T03:21:24.608Z,18.12
2016-12-15T03:21:52.615Z,18.12
2016-12-15T03:22:20.956Z,18.12
2016-12-15T03:22:49.125Z,18.13
2016-12-15T03:23:17.341Z,18.08
2016-12-15T03:23:45.594Z,18.05
2016-12-15T03:24:56.829Z,18.06
2016-12-15T03:25:25.123Z,18.06
2016-12-15T03:25:53.395Z,18.03
2016-12-15T03:26:21.745Z,18.01
2016-12-15T03:26:49.958Z,18.12
2016-12-15T03:27:18.147Z,18.12
2016-12-15T03:27:46.345Z,17.99
2016-12-15T03:28:14.502Z,18.03
2016-12-15T03:28:42.757Z,17.99
2016-12-15T03:29:10.966Z,18.12
2016-12-15T03:29:39.125Z,18.12
2016-12-15T03:30:50.176Z,18.08
2016-12-15T03:31:18.470Z,18.03
2016-12-15T03:31:46.822Z,18.17
2016-12-15T03:32:15.075Z,18.17
2016-12-15T03:32:43.295Z,18.13
2016-12-15T03:33:11.571Z,18.01
2016-12-15T03:33:39.670Z,18.18
2016-12-15T03:34:07.647Z,18.11
2016-12-15T03:34:35.904Z,18.13
2016-12-15T03:35:04.114Z,18.15
2016-12-15T03:35:32.370Z,18.13
2016-12-15T03:36:43.702Z,18.17
2016-12-15T03:37:11.994Z,18.18
2016-12-15T03:37:40.256Z,18.17
2016-12-15T03:38:08.510Z,18.11
2016-12-15T03:38:36.638Z,18.12
2016-12-15T03:39:04.739Z,18.17
2016-12-15T03:39:33.026Z,18.02
2016-12-15T03:40:01.275Z,18.03
2016-12-15T03:40:29.442Z,18.03
2016-12-15T03:40:57.560Z,18.02
2016-12-15T03:41:25.811Z,18.08
2016-12-15T03:42:37.049Z,18.08
2016-12-15T03:43:05.253Z,18.03
2016-12-15T03:43:33.511Z,18.09
2016-12-15T03:44:01.769Z,18.08
2016-12-15T03:44:30.076Z,18.03
2016-12-15T03:44:58.207Z,18.05
2016-12-15T03:45:26.271Z,18.01
2016-12-15T03:45:54.333Z,18.02
2016-12-15T03:46:22.593Z,17.99
2016-12-15T03:46:50.803Z,18.09
2016-12-15T03:47:18.864Z,18.11
2016-12-15T03:48:30.103Z,18.05
2016-12-15T03:48:58.402Z,18.01
2016-12-15T03:49:26.565Z,18.03
2016-12-15T03:49:54.825Z,18.06
2016-12-15T03:50:22.951Z,18.08
2016-12-15T03:50:51.142Z,18.08
2016-12-15T03:51:19.335Z,18.03
2016-12-15T03:51:47.679Z,18.06
2016-12-15T03:52:15.849Z,18.01
2016-12-15T03:52:43.964Z,18.03
2016-12-15T03:53:12.122Z,18.05
2016-12-15T03:54:23.356Z,18.02
2016-12-15T03:54:51.465Z,18.05
2016-12-15T03:55:19.727Z,17.99
2016-12-15T03:55:48.075Z,18.09
2016-12-15T03:56:16.285Z,18.02
2016-12-15T03:56:44.376Z,18.02
2016-12-15T03:57:12.565Z,18.06
2016-12-15T03:57:40.816Z,18.03
2016-12-15T03:58:09.075Z,18.01
2016-12-15T03:58:37.285Z,18.05
2016-12-15T03:59:05.536Z,18.05
2016-12-15T04:00:16.868Z,18.06
2016-12-15T04:00:45.170Z,18.13
2016-12-15T04:01:13.521Z,18.05
2016-12-15T04:01:41.685Z,18.06
2016-12-15T04:02:09.895Z,18.13
2016-12-15T04:02:38.082Z,18.15
2016-12-15T04:03:06.366Z,18.13
2016-12-15T04:03:34.614Z,18.11
2016-12-15T04:04:02.965Z,18.13
2016-12-15T04:04:31.174Z,18.15
2016-12-15T04:04:59.339Z,18.12
2016-12-15T04:06:10.482Z,18.12
2016-12-15T04:06:38.591Z,18.15
2016-12-15T04:07:06.849Z,18.12
2016-12-15T04:07:35.025Z,18.02
2016-12-15T04:08:03.326Z,18.17
2016-12-15T04:08:31.521Z,18.12
2016-12-15T04:08:59.710Z,17.99
2016-12-15T04:09:27.958Z,17.97
2016-12-15T04:09:56.312Z,18.12
2016-12-15T04:10:24.516Z,18.01
2016-12-15T04:10:52.862Z,18.13
2016-12-15T04:12:04.103Z,18.13
2016-12-15T04:12:32.308Z,18.15
2016-12-15T04:13:00.568Z,18.13
2016-12-15T04:13:28.913Z,18.18
2016-12-15T04:13:57.119Z,18.13
2016-12-15T04:14:25.127Z,18.17
2016-12-15T04:14:53.317Z,18.15
2016-12-15T04:15:21.661Z,18.15
2016-12-15T04:15:50.016Z,18.15
2016-12-15T04:16:18.131Z,18.18
2016-12-15T04:16:46.382Z,18.12
2016-12-15T04:17:57.525Z,18.05
2016-12-15T04:18:25.636Z,18.02
2016-12-15T04:18:53.991Z,18.13
2016-12-15T04:19:22.338Z,18.12
2016-12-15T04:19:50.641Z,18.12
2016-12-15T04:20:18.918Z,18.11
2016-12-15T04:20:46.925Z,18.08
2016-12-15T04:21:15.176Z,18.13
2016-12-15T04:21:43.435Z,18.13
2016-12-15T04:22:11.651Z,18.12
2016-12-15T04:22:39.903Z,18.12
2016-12-15T04:23:51.135Z,18.24
2016-12-15T04:24:19.342Z,18.13
2016-12-15T04:24:47.502Z,18.18
2016-12-15T04:25:15.762Z,18.12
2016-12-15T04:25:43.975Z,18.18
2016-12-15T04:26:11.878Z,18.12
2016-12-15T04:26:39.979Z,18.12
2016-12-15T04:27:08.040Z,18.18
2016-12-15T04:27:36.391Z,18.15
2016-12-15T04:28:04.602Z,18.17
2016-12-15T04:28:32.856Z,18.06
2016-12-15T04:29:44.082Z,17.97
2016-12-15T04:30:12.284Z,17.97
2016-12-15T04:30:40.453Z,18.01
2016-12-15T04:31:08.801Z,17.97
2016-12-15T04:31:37.011Z,17.97
2016-12-15T04:32:05.111Z,17.96
2016-12-15T04:32:33.214Z,17.9
2016-12-15T04:33:01.457Z,17.9
2016-12-15T04:33:29.807Z,17.79
2016-12-15T04:33:57.837Z,17.9
2016-12-15T04:34:26.182Z,17.79
2016-12-15T04:35:37.422Z,17.66
2016-12-15T04:36:05.531Z,17.86
2016-12-15T04:36:33.785Z,17.84
2016-12-15T04:37:01.978Z,17.73
2016-12-15T04:37:30.095Z,17.84
2016-12-15T04:37:58.286Z,17.72
2016-12-15T04:38:26.476Z,17.63
2016-12-15T04:38:54.816Z,17.65
2016-12-15T04:39:23.076Z,17.59
2016-12-15T04:39:51.378Z,17.54
2016-12-15T04:40:19.632Z,17.65
2016-12-15T04:41:30.963Z,17.57
2016-12-15T04:41:59.167Z,17.63
2016-12-15T04:42:27.334Z,17.63
2016-12-15T04:42:55.595Z,17.66
2016-12-15T04:43:23.713Z,17.71
2016-12-15T04:43:51.909Z,17.65
2016-12-15T04:44:19.999Z,17.63
2016-12-15T04:44:48.153Z,17.62
2016-12-15T04:45:16.505Z,17.66
2016-12-15T04:45:44.805Z,17.72
2016-12-15T04:46:12.968Z,17.63
2016-12-15T04:47:24.207Z,17.65
2016-12-15T04:47:52.414Z,17.73
2016-12-15T04:48:20.766Z,17.68
2016-12-15T04:48:49.113Z,17.68
2016-12-15T04:49:17.229Z,17.68
2016-12-15T04:49:45.512Z,17.65
2016-12-15T04:50:13.700Z,17.57
2016-12-15T04:50:41.948Z,17.59
2016-12-15T04:51:10.206Z,17.65
2016-12-15T04:51:38.510Z,17.56
2016-12-15T04:52:06.857Z,17.59
2016-12-15T04:53:18.189Z,17.72
2016-12-15T04:53:46.302Z,17.57
2016-12-15T04:54:14.559Z,17.65
2016-12-15T04:54:42.631Z,17.53
2016-12-15T04:55:10.843Z,17.53
2016-12-15T04:55:38.842Z,17.65
2016-12-15T04:56:07.035Z,17.56
2016-12-15T04:56:35.283Z,17.52
2016-12-15T04:57:03.539Z,17.56
2016-12-15T04:57:31.841Z,17.56
2016-12-15T04:58:00.187Z,17.52
2016-12-15T04:59:11.416Z,17.5
2016-12-15T04:59:39.436Z,17.54
2016-12-15T05:00:07.697Z,17.49
2016-12-15T05:00:35.957Z,17.5
2016-12-15T05:01:04.256Z,17.5
2016-12-15T05:01:32.441Z,17.57
2016-12-15T05:02:00.636Z,17.5
2016-12-15T05:02:28.792Z,17.5
2016-12-15T05:02:57.139Z,17.41
2016-12-15T05:03:25.441Z,17.35
2016-12-15T05:03:53.688Z,17.35
2016-12-15T05:05:04.828Z,17.38
2016-12-15T05:05:32.943Z,17.38
2016-12-15T05:06:01.201Z,17.43
2016-12-15T05:06:29.455Z,17.39
2016-12-15T05:06:57.758Z,17.43
2016-12-15T05:07:25.947Z,17.38
2016-12-15T05:07:54.142Z,17.38
2016-12-15T05:08:22.390Z,17.34
2016-12-15T05:08:50.744Z,17.31
2016-12-15T05:09:18.861Z,17.38
2016-12-15T05:09:47.017Z,17.28
2016-12-15T05:10:58.247Z,17.27
2016-12-15T05:11:26.545Z,17.27
2016-12-15T05:11:54.900Z,17.22
2016-12-15T05:12:23.064Z,17.31
2016-12-15T05:12:51.368Z,17.24
2016-12-15T05:13:19.552Z,17.17
2016-12-15T05:13:47.649Z,17.25
2016-12-15T05:14:15.807Z,17.27
2016-12-15T05:14:44.061Z,17.22
2016-12-15T05:15:12.272Z,17.25
2016-12-15T05:15:40.434Z,17.27
2016-12-15T05:16:51.671Z,17.2
2016-12-15T05:17:19.969Z,17.16
2016-12-15T05:17:48.230Z,17.22
2016-12-15T05:18:16.580Z,17.17
2016-12-15T05:18:44.787Z,17.2
2016-12-15T05:19:12.977Z,17.19
2016-12-15T05:19:41.071Z,17.2
2016-12-15T05:20:09.321Z,17.27
2016-12-15T05:20:37.673Z,17.14
2016-12-15T05:21:05.975Z,17.17
2016-12-15T05:21:34.135Z,17.2
2016-12-15T05:22:45.464Z,17.17
2016-12-15T05:23:13.574Z,17.17
2016-12-15T05:23:41.861Z,17.24
2016-12-15T05:24:10.114Z,17.25
2016-12-15T05:24:38.237Z,17.25
2016-12-15T05:25:06.424Z,17.19
2016-12-15T05:25:34.617Z,17.19
2016-12-15T05:26:02.867Z,17.16
2016-12-15T05:26:31.218Z,17.24
2016-12-15T05:26:59.521Z,17.2
2016-12-15T05:27:27.777Z,17.24
2016-12-15T05:28:38.923Z,17.22
2016-12-15T05:29:07.035Z,17.25
2016-12-15T05:29:35.389Z,17.19
2016-12-15T05:30:03.461Z,17.24
2016-12-15T05:30:31.664Z,17.17
2016-12-15T05:30:59.759Z,17.25
2016-12-15T05:31:28.050Z,17.19
2016-12-15T05:31:56.202Z,17.2
2016-12-15T05:32:24.460Z,17.27
2016-12-15T05:32:52.669Z,17.27
2016-12-15T05:33:20.829Z,17.3
2016-12-15T05:34:32.059Z,17.28
2016-12-15T05:35:00.174Z,17.27
2016-12-15T05:35:28.529Z,17.28
2016-12-15T05:35:56.602Z,17.31
2016-12-15T05:36:24.721Z,17.3
2016-12-15T05:36:52.905Z,17.34
2016-12-15T05:37:20.999Z,17.27
2016-12-15T05:37:49.062Z,17.37
2016-12-15T05:38:17.320Z,17.34
2016-12-15T05:38:45.625Z,17.34
2016-12-15T05:39:13.874Z,17.32
2016-12-15T05:40:25.106Z,17.34
2016-12-15T05:40:53.041Z,17.32
2016-12-15T05:41:21.396Z,17.34
2016-12-15T05:41:49.745Z,17.3
2016-12-15T05:42:17.868Z,17.32
2016-12-15T05:42:46.149Z,17.35
2016-12-15T05:43:14.344Z,17.3
2016-12-15T05:43:42.592Z,17.38
2016-12-15T05:44:10.847Z,17.3
2016-12-15T05:44:39.058Z,17.32
2016-12-15T05:45:07.305Z,17.35
2016-12-15T05:46:18.631Z,17.34
2016-12-15T05:46:46.837Z,17.32
2016-12-15T05:47:15.097Z,17.34
2016-12-15T05:47:43.259Z,17.28
2016-12-15T05:48:11.467Z,17.34
2016-12-15T05:48:39.749Z,17.32
2016-12-15T05:49:08.035Z,17.28
2016-12-15T05:49:36.192Z,17.38
2016-12-15T05:50:04.546Z,17.28
2016-12-15T05:50:32.567Z,17.37
2016-12-15T05:51:00.817Z,17.39
2016-12-15T05:52:12.051Z,17.35
2016-12-15T05:52:40.256Z,17.35
2016-12-15T05:53:08.606Z,17.31
2016-12-15T05:53:36.952Z,17.24
2016-12-15T05:54:05.069Z,17.24
2016-12-15T05:54:33.261Z,17.3
2016-12-15T05:55:01.447Z,17.24
2016-12-15T05:55:29.503Z,17.3
2016-12-15T05:55:57.857Z,17.1
2016-12-15T05:56:26.161Z,17.1
2016-12-15T05:56:54.504Z,17.14
2016-12-15T05:58:05.741Z,17.09
2016-12-15T05:58:34.039Z,17.02
2016-12-15T05:59:02.207Z,17.1
2016-12-15T05:59:30.499Z,17.01
2016-12-15T05:59:58.713Z,17.02
2016-12-15T06:00:26.902Z,16.98
2016-12-15T06:00:55.097Z,16.98
2016-12-15T06:01:23.256Z,17.02
2016-12-15T06:01:51.612Z,16.94
2016-12-15T06:02:19.727Z,17.01
2016-12-15T06:02:47.976Z,16.99
2016-12-15T06:03:59.118Z,16.98
2016-12-15T06:04:27.322Z,17.02
2016-12-15T06:04:55.581Z,16.98
2016-12-15T06:05:23.926Z,16.94
2016-12-15T06:05:52.136Z,16.92
2016-12-15T06:06:20.418Z,17.02
2016-12-15T06:06:48.700Z,17.01
2016-12-15T06:07:17.042Z,16.92
2016-12-15T06:07:45.389Z,16.94
2016-12-15T06:08:13.689Z,16.88
2016-12-15T06:08:41.751Z,16.99
2016-12-15T06:09:53.080Z,16.97
2016-12-15T06:10:21.193Z,17.06
2016-12-15T06:10:49.547Z,16.92
2016-12-15T06:11:17.805Z,16.99
2016-12-15T06:11:46.107Z,16.92
2016-12-15T06:12:14.296Z,17.02
2016-12-15T06:12:42.395Z,16.9
2016-12-15T06:13:10.551Z,17.01
2016-12-15T06:13:38.896Z,16.99
2016-12-15T06:14:07.015Z,16.97
2016-12-15T06:14:35.267Z,16.95
2016-12-15T06:15:46.499Z,16.97
2016-12-15T06:16:14.800Z,16.98
2016-12-15T06:16:43.056Z,17.01
2016-12-15T06:17:11.305Z,16.94
2016-12-15T06:17:39.419Z,16.94
2016-12-15T06:18:07.609Z,16.9
2016-12-15T06:18:35.803Z,16.87
2016-12-15T06:19:03.960Z,16.88
2016-12-15T06:19:32.217Z,16.94
2016-12-15T06:20:00.520Z,16.98
2016-12-15T06:20:28.773Z,16.98
2016-12-15T06:21:40.004Z,16.87
2016-12-15T06:22:08.204Z,16.99
2016-12-15T06:22:36.559Z,17.02
2016-12-15T06:23:04.721Z,16.97
2016-12-15T06:23:32.933Z,16.91
2016-12-15T06:24:01.215Z,17.01
2016-12-15T06:24:29.309Z,16.97
2016-12-15T06:24:57.560Z,16.97
2016-12-15T06:25:25.911Z,16.97
2016-12-15T06:25:54.225Z,16.98
2016-12-15T06:26:22.479Z,17.02
2016-12-15T06:27:33.624Z,17.02
2016-12-15T06:28:01.834Z,17.04
2016-12-15T06:28:30.092Z,17.04
2016-12-15T06:28:58.348Z,17.04
2016-12-15T06:29:26.462Z,17.07
2016-12-15T06:29:54.646Z,17.04
2016-12-15T06:30:22.651Z,17.16
2016-12-15T06:30:50.717Z,17.04
2016-12-15T06:31:18.885Z,17.06
2016-12-15T06:31:46.904Z,17.1
2016-12-15T06:32:15.249Z,16.99
2016-12-15T06:33:26.486Z,17.04
2016-12-15T06:33:54.597Z,17.07
2016-12-15T06:34:22.856Z,17.02
2016-12-15T06:34:51.116Z,17.04
2016-12-15T06:35:19.420Z,17.09
2016-12-15T06:35:47.607Z,17.04
2016-12-15T06:36:15.703Z,16.92
2016-12-15T06:36:43.771Z,16.95
2016-12-15T06:37:12.124Z,17.06
2016-12-15T06:37:40.332Z,17.04
2016-12-15T06:38:08.678Z,16.84
2016-12-15T06:39:19.915Z,16.99
2016-12-15T06:39:48.211Z,16.92
2016-12-15T06:40:16.469Z,16.99
2016-12-15T06:40:44.815Z,16.94
2016-12-15T06:41:13.027Z,16.9
2016-12-15T06:41:41.120Z,17.02
2016-12-15T06:42:09.404Z,17.01
2016-12-15T06:42:37.558Z,16.92
2016-12-15T06:43:05.912Z,16.99
2016-12-15T06:43:34.134Z,17.01
2016-12-15T06:44:02.283Z,16.99
2016-12-15T06:45:13.426Z,17.02
2016-12-15T06:45:41.725Z,17.07
2016-12-15T06:46:09.983Z,17.06
2016-12-15T06:46:38.145Z,17.02
2016-12-15T06:47:06.355Z,16.92
2016-12-15T06:47:34.549Z,16.98
2016-12-15T06:48:02.741Z,16.92
2016-12-15T06:48:31.081Z,17.04
2016-12-15T06:48:59.435Z,16.94
2016-12-15T06:49:27.547Z,16.99
2016-12-15T06:49:55.803Z,16.92
2016-12-15T06:51:07.036Z,16.95
2016-12-15T06:51:35.242Z,16.9
2016-12-15T06:52:03.594Z,16.95
2016-12-15T06:52:31.942Z,16.97
2016-12-15T06:53:00.152Z,17.02
2016-12-15T06:53:28.432Z,16.98
2016-12-15T06:53:56.714Z,17.02
2016-12-15T06:54:24.875Z,16.97